createdAt,value
2019-04-10T00:01:01.823Z,2.20
2019-04-10T00:03:35.472Z,2.00
2019-04-10T00:06:00.566Z,2.00
2019-04-10T00:08:29.036Z,1.90
2019-04-10T00:10:58.456Z,1.90
2019-04-10T00:13:28.839Z,1.80
2019-04-10T00:15:57.415Z,1.90
2019-04-10T00:18:26.304Z,1.90
2019-04-10T00:20:54.823Z,2.00
2019-04-10T00:23:23.296Z,2.00
2019-04-10T00:25:52.918Z,2.00
2019-04-10T00:28:21.532Z,2.00
2019-04-10T00:30:50.001Z,2.00
2019-04-10T00:33:18.848Z,2.00
2019-04-10T00:35:47.739Z,2.00
2019-04-10T00:38:16.219Z,1.90
2019-04-10T00:40:45.578Z,1.90
2019-04-10T00:43:14.885Z,1.90
2019-04-10T00:45:43.992Z,1.80
2019-04-10T00:48:12.596Z,1.70
2019-04-10T00:50:41.091Z,1.70
2019-04-10T00:53:10.979Z,1.60
2019-04-10T00:55:39.803Z,1.70
2019-04-10T00:58:08.295Z,1.80
2019-04-10T01:00:37.034Z,1.80
2019-04-10T01:03:05.484Z,1.70
2019-04-10T01:05:33.951Z,1.70
2019-04-10T01:08:02.445Z,1.60
2019-04-10T01:10:30.975Z,1.60
2019-04-10T01:12:59.399Z,1.50
2019-04-10T01:15:28.795Z,1.40
2019-04-10T01:17:57.292Z,1.40
2019-04-10T01:20:25.889Z,1.40
2019-04-10T01:22:55.202Z,1.30
2019-04-10T01:25:24.200Z,1.30
2019-04-10T01:27:52.708Z,1.40
2019-04-10T01:30:22.173Z,1.40
2019-04-10T01:32:50.683Z,1.30
2019-04-10T01:35:20.230Z,1.30
2019-04-10T01:37:54.565Z,1.40
2019-04-10T01:40:19.126Z,1.40
2019-04-10T01:43:02.319Z,1.40
2019-04-10T01:45:19.514Z,1.40
2019-04-10T01:47:48.017Z,1.40
2019-04-10T01:50:16.483Z,1.50
2019-04-10T01:52:45.003Z,1.50
2019-04-10T01:55:20.088Z,1.50
2019-04-10T01:57:44.184Z,1.60
2019-04-10T02:00:15.236Z,1.50
2019-04-10T02:02:45.499Z,1.50
2019-04-10T02:05:14.463Z,1.50
2019-04-10T02:07:42.969Z,1.60
2019-04-10T02:10:12.123Z,1.60
2019-04-10T02:12:41.002Z,1.70
2019-04-10T02:15:11.855Z,1.60
2019-04-10T02:17:41.051Z,1.60
2019-04-10T02:20:10.572Z,1.60
2019-04-10T02:22:40.541Z,1.50
2019-04-10T02:25:10.240Z,1.50
2019-04-10T02:27:40.522Z,1.50
2019-04-10T02:30:12.773Z,1.50
2019-04-10T02:32:45.169Z,1.50
2019-04-10T02:35:16.535Z,1.50
2019-04-10T02:37:43.416Z,1.50
2019-04-10T02:40:12.852Z,1.40
2019-04-10T02:42:43.108Z,1.40
2019-04-10T02:45:12.639Z,1.30
2019-04-10T02:47:43.136Z,1.30
2019-04-10T02:50:12.619Z,1.30
2019-04-10T02:52:43.239Z,1.30
2019-04-10T02:55:12.083Z,1.20
2019-04-10T02:57:41.360Z,1.30
2019-04-10T03:00:10.980Z,1.30
2019-04-10T03:02:41.602Z,1.30
2019-04-10T03:05:10.788Z,1.20
2019-04-10T03:07:40.393Z,1.20
2019-04-10T03:10:23.248Z,1.20
2019-04-10T03:12:41.069Z,1.10
2019-04-10T03:15:12.582Z,1.00
2019-04-10T03:17:42.055Z,1.00
2019-04-10T03:20:10.696Z,1.00
2019-04-10T03:22:40.911Z,0.90
2019-04-10T03:25:10.930Z,0.90
2019-04-10T03:27:40.674Z,0.90
2019-04-10T03:30:12.407Z,0.90
2019-04-10T03:32:48.098Z,0.90
2019-04-10T03:35:16.907Z,0.90
2019-04-10T03:37:45.354Z,0.90
2019-04-10T03:40:13.809Z,0.90
2019-04-10T03:42:43.299Z,0.90
2019-04-10T03:45:11.881Z,0.80
2019-04-10T03:47:40.336Z,0.80
2019-04-10T03:50:08.930Z,0.80
2019-04-10T03:52:37.838Z,0.70
2019-04-10T03:55:06.767Z,0.70
2019-04-10T03:57:36.398Z,0.70
2019-04-10T04:00:09.838Z,0.60
2019-04-10T04:02:38.420Z,0.50
2019-04-10T04:05:07.000Z,0.60
2019-04-10T04:07:35.428Z,0.60
2019-04-10T04:10:06.450Z,0.60
2019-04-10T04:12:35.029Z,0.50
2019-04-10T04:15:05.269Z,0.60
2019-04-10T04:17:33.877Z,0.50
2019-04-10T04:20:02.551Z,0.50
2019-04-10T04:22:31.083Z,0.40
2019-04-10T04:25:00.282Z,0.40
2019-04-10T04:27:29.270Z,0.40
2019-04-10T04:29:57.872Z,0.40
2019-04-10T04:32:26.339Z,0.40
2019-04-10T04:34:57.090Z,0.40
2019-04-10T04:37:25.962Z,0.40
2019-04-10T04:39:54.516Z,0.40
2019-04-10T04:42:23.044Z,0.50
2019-04-10T04:44:52.102Z,0.40
2019-04-10T04:47:20.621Z,0.50
2019-04-10T04:49:50.018Z,0.50
2019-04-10T04:52:18.670Z,0.50
2019-04-10T04:54:53.316Z,0.50
2019-04-10T04:57:22.650Z,0.60
2019-04-10T04:59:51.167Z,0.60
2019-04-10T05:02:19.939Z,0.60
2019-04-10T05:04:49.384Z,0.70
2019-04-10T05:07:17.884Z,0.90
2019-04-10T05:09:46.399Z,1.10
2019-04-10T05:12:16.317Z,1.20
2019-04-10T05:14:46.081Z,1.50
2019-04-10T05:17:16.665Z,1.80
2019-04-10T05:19:44.846Z,1.90
2019-04-10T05:22:14.332Z,2.00
2019-04-10T05:24:42.814Z,2.00
2019-04-10T05:27:11.898Z,1.90
2019-04-10T05:29:40.894Z,2.20
2019-04-10T05:32:10.199Z,2.60
2019-04-10T05:34:38.697Z,2.60
2019-04-10T05:37:07.357Z,2.80
2019-04-10T05:39:43.978Z,2.80
2019-04-10T05:42:06.379Z,2.80
2019-04-10T05:44:35.958Z,2.70
2019-04-10T05:47:05.382Z,2.80
2019-04-10T05:49:35.090Z,2.70
2019-04-10T05:52:04.221Z,2.60
2019-04-10T05:54:33.313Z,2.80
2019-04-10T05:57:01.823Z,3.00
2019-04-10T05:59:30.293Z,3.00
2019-04-10T06:01:58.983Z,3.30
2019-04-10T06:04:27.535Z,3.20
2019-04-10T06:06:56.855Z,3.50
2019-04-10T06:09:25.388Z,3.50
2019-04-10T06:11:55.230Z,3.40
2019-04-10T06:14:24.200Z,3.70
2019-04-10T06:16:53.063Z,3.70
2019-04-10T06:19:22.028Z,3.70
2019-04-10T06:21:50.565Z,3.60
2019-04-10T06:24:20.110Z,3.50
2019-04-10T06:26:49.982Z,3.80
2019-04-10T06:29:19.203Z,4.00
2019-04-10T06:31:47.716Z,3.90
2019-04-10T06:34:18.596Z,4.50
2019-04-10T06:36:46.345Z,5.20
2019-04-10T06:39:14.815Z,5.40
2019-04-10T06:41:43.260Z,5.50
2019-04-10T06:44:11.906Z,5.80
2019-04-10T06:46:40.811Z,5.90
2019-04-10T06:49:10.368Z,5.70
2019-04-10T06:51:38.810Z,5.50
2019-04-10T06:54:11.019Z,5.20
2019-04-10T06:56:37.539Z,5.30
2019-04-10T06:59:06.670Z,5.10
2019-04-10T07:01:44.306Z,5.30
2019-04-10T07:04:07.610Z,5.60
2019-04-10T07:06:47.170Z,5.60
2019-04-10T07:09:07.573Z,5.60
2019-04-10T07:11:36.609Z,5.90
2019-04-10T07:14:05.157Z,5.70
2019-04-10T07:16:35.369Z,6.00
2019-04-10T07:19:05.986Z,6.20
2019-04-10T07:21:35.550Z,6.10
2019-04-10T07:24:06.584Z,6.10
2019-04-10T07:26:40.365Z,6.30
2019-04-10T07:29:04.996Z,6.40
2019-04-10T07:31:35.304Z,6.50
2019-04-10T07:34:03.608Z,6.60
2019-04-10T07:36:32.953Z,7.00
2019-04-10T07:39:01.556Z,7.50
2019-04-10T07:41:30.055Z,7.20
2019-04-10T07:43:58.766Z,7.50
2019-04-10T07:46:28.222Z,7.80
2019-04-10T07:48:56.781Z,8.10
2019-04-10T07:51:25.639Z,8.00
2019-04-10T07:53:54.083Z,8.20
2019-04-10T07:56:22.528Z,8.90
2019-04-10T07:58:51.767Z,9.20
2019-04-10T08:01:20.323Z,9.70
2019-04-10T08:03:51.315Z,9.80
2019-04-10T08:06:19.946Z,10.20
2019-04-10T08:08:49.184Z,10.50
2019-04-10T08:11:17.744Z,10.70
2019-04-10T08:13:47.058Z,11.10
2019-04-10T08:16:15.611Z,11.40
2019-04-10T08:18:44.033Z,11.70
2019-04-10T08:21:13.502Z,12.10
2019-04-10T08:23:42.353Z,11.50
2019-04-10T08:26:11.965Z,12.00
2019-04-10T08:28:41.290Z,11.10
2019-04-10T08:31:10.619Z,10.90
2019-04-10T08:33:39.123Z,10.50
2019-04-10T08:36:07.695Z,10.80
2019-04-10T08:38:36.208Z,10.90
2019-04-10T08:41:05.149Z,10.00
2019-04-10T08:43:34.114Z,10.30
2019-04-10T08:46:03.482Z,10.10
2019-04-10T08:48:33.039Z,11.10
2019-04-10T08:51:01.695Z,11.40
2019-04-10T08:53:30.659Z,11.50
2019-04-10T08:55:59.151Z,11.90
2019-04-10T08:58:27.626Z,12.10
2019-04-10T09:00:56.595Z,12.10
2019-04-10T09:03:25.148Z,12.30
2019-04-10T09:05:53.623Z,11.90
2019-04-10T09:08:22.094Z,12.00
2019-04-10T09:10:50.597Z,11.60
2019-04-10T09:13:20.053Z,11.70
2019-04-10T09:15:48.579Z,11.70
2019-04-10T09:18:17.048Z,11.50
2019-04-10T09:20:46.809Z,12.00
2019-04-10T09:23:26.566Z,12.30
2019-04-10T09:25:45.541Z,12.90
2019-04-10T09:28:14.136Z,13.10
2019-04-10T09:30:42.802Z,13.80
2019-04-10T09:33:21.033Z,13.90
2019-04-10T09:35:41.486Z,13.60
2019-04-10T09:38:10.728Z,13.70
2019-04-10T09:40:40.263Z,13.60
2019-04-10T09:43:09.316Z,13.80
2019-04-10T09:45:37.871Z,13.20
2019-04-10T09:48:06.489Z,12.30
2019-04-10T09:50:35.433Z,12.80
2019-04-10T09:53:04.171Z,13.70
2019-04-10T09:55:32.685Z,13.30
2019-04-10T09:58:02.073Z,13.30
2019-04-10T10:00:31.855Z,12.90
2019-04-10T10:03:01.506Z,13.50
2019-04-10T10:05:30.699Z,13.30
2019-04-10T10:08:00.183Z,13.30
2019-04-10T10:10:29.062Z,13.50
2019-04-10T10:12:57.567Z,13.70
2019-04-10T10:15:27.339Z,13.40
2019-04-10T10:17:57.053Z,13.60
2019-04-10T10:20:25.940Z,13.80
2019-04-10T10:22:55.667Z,13.30
2019-04-10T10:25:24.189Z,13.60
2019-04-10T10:27:52.714Z,13.60
2019-04-10T10:30:23.153Z,13.70
2019-04-10T10:32:51.754Z,13.80
2019-04-10T10:35:20.259Z,13.50
2019-04-10T10:37:48.765Z,13.70
2019-04-10T10:40:17.756Z,13.60
2019-04-10T10:42:46.314Z,14.20
2019-04-10T10:45:15.095Z,14.60
2019-04-10T10:47:44.282Z,14.30
2019-04-10T10:50:13.146Z,15.10
2019-04-10T10:52:41.769Z,14.80
2019-04-10T10:55:11.659Z,14.30
2019-04-10T10:57:41.560Z,14.90
2019-04-10T11:00:13.149Z,15.10
2019-04-10T11:02:41.833Z,14.50
2019-04-10T11:05:11.230Z,14.70
2019-04-10T11:07:40.535Z,14.50
2019-04-10T11:10:09.578Z,14.30
2019-04-10T11:12:38.470Z,15.70
2019-04-10T11:15:07.793Z,16.40
2019-04-10T11:17:36.385Z,16.60
2019-04-10T11:20:10.046Z,15.60
2019-04-10T11:22:39.726Z,13.90
2019-04-10T11:25:08.630Z,12.70
2019-04-10T11:27:37.093Z,13.30
2019-04-10T11:30:08.432Z,14.00
2019-04-10T11:32:38.073Z,14.00
2019-04-10T11:35:07.669Z,14.60
2019-04-10T11:37:43.861Z,15.10
2019-04-10T11:42:37.321Z,15.50
2019-04-10T11:45:10.334Z,15.40
2019-04-10T11:47:39.114Z,16.10
2019-04-10T11:50:12.989Z,16.20
2019-04-10T11:52:44.854Z,15.30
2019-04-10T11:55:13.828Z,13.70
2019-04-10T11:57:41.689Z,14.40
2019-04-10T12:00:12.266Z,15.60
2019-04-10T12:02:45.015Z,16.50
2019-04-10T12:05:18.139Z,16.40
2019-04-10T12:08:09.107Z,17.10
2019-04-10T12:12:42.289Z,15.60
2019-04-10T12:15:12.244Z,16.00
2019-04-10T12:17:42.981Z,15.70
2019-04-10T12:20:11.252Z,15.80
2019-04-10T12:22:40.692Z,15.60
2019-04-10T12:25:10.228Z,16.70
2019-04-10T12:27:39.046Z,16.80
2019-04-10T12:30:13.133Z,16.70
2019-04-10T12:32:41.723Z,15.70
2019-04-10T12:35:11.108Z,15.90
2019-04-10T12:37:39.559Z,15.70
2019-04-10T12:40:08.252Z,16.20
2019-04-10T12:42:36.734Z,15.60
2019-04-10T12:45:08.124Z,15.60
2019-04-10T12:47:37.683Z,15.10
2019-04-10T12:50:08.062Z,15.70
2019-04-10T12:52:36.705Z,15.60
2019-04-10T12:55:08.019Z,16.50
2019-04-10T12:57:37.062Z,16.90
2019-04-10T13:00:09.726Z,15.50
2019-04-10T13:02:38.644Z,16.10
2019-04-10T13:05:09.076Z,16.20
2019-04-10T13:07:37.940Z,16.60
2019-04-10T13:10:08.719Z,16.00
2019-04-10T13:12:37.627Z,15.50
2019-04-10T13:15:08.268Z,15.40
2019-04-10T13:17:36.708Z,15.90
2019-04-10T13:20:11.104Z,15.70
2019-04-10T13:22:40.176Z,15.10
2019-04-10T13:25:10.166Z,15.20
2019-04-10T13:27:39.011Z,15.90
2019-04-10T13:30:12.887Z,16.00
2019-04-10T13:32:42.312Z,15.60
2019-04-10T13:35:11.498Z,16.40
2019-04-10T13:37:39.925Z,16.30
2019-04-10T13:40:08.637Z,16.20
2019-04-10T13:42:37.237Z,15.60
2019-04-10T13:45:07.443Z,16.30
2019-04-10T13:47:35.892Z,15.50
2019-04-10T13:50:06.461Z,15.10
2019-04-10T13:52:36.344Z,15.00
2019-04-10T13:55:07.412Z,15.10
2019-04-10T13:57:36.994Z,15.70
2019-04-10T14:00:07.305Z,16.00
2019-04-10T14:02:39.436Z,15.10
2019-04-10T14:05:11.490Z,15.10
2019-04-10T14:07:40.255Z,14.80
2019-04-10T14:10:10.640Z,14.80
2019-04-10T14:12:39.114Z,15.60
2019-04-10T14:15:08.098Z,15.80
2019-04-10T14:17:37.518Z,15.60
2019-04-10T14:20:06.970Z,14.90
2019-04-10T14:22:37.896Z,14.20
2019-04-10T14:25:09.620Z,13.90
2019-04-10T14:27:38.522Z,13.10
2019-04-10T14:30:11.335Z,12.70
2019-04-10T14:32:39.992Z,12.50
2019-04-10T14:35:10.123Z,12.30
2019-04-10T14:37:38.939Z,12.20
2019-04-10T14:40:10.037Z,12.40
2019-04-10T14:42:38.620Z,12.30
2019-04-10T14:45:07.332Z,12.30
2019-04-10T14:47:36.124Z,12.30
2019-04-10T14:50:05.603Z,12.50
2019-04-10T14:52:34.951Z,12.30
2019-04-10T14:55:04.073Z,12.10
2019-04-10T14:57:32.828Z,11.70
2019-04-10T15:00:01.325Z,11.80
2019-04-10T15:02:30.729Z,11.70
2019-04-10T15:04:59.520Z,11.60
2019-04-10T15:07:28.892Z,11.40
2019-04-10T15:09:57.420Z,11.50
2019-04-10T15:12:25.860Z,11.40
2019-04-10T15:14:54.317Z,11.50
2019-04-10T15:17:23.124Z,11.40
2019-04-10T15:19:52.581Z,11.20
2019-04-10T15:22:23.382Z,11.20
2019-04-10T15:24:52.006Z,11.20
2019-04-10T15:27:21.465Z,11.20
2019-04-10T15:29:50.100Z,11.00
2019-04-10T15:32:18.554Z,10.90
2019-04-10T15:34:48.253Z,10.70
2019-04-10T15:37:17.206Z,10.70
2019-04-10T15:39:46.371Z,10.50
2019-04-10T15:42:16.149Z,10.60
2019-04-10T15:44:44.701Z,10.40
2019-04-10T15:47:18.343Z,10.40
2019-04-10T15:49:43.408Z,10.50
2019-04-10T15:52:12.212Z,10.50
2019-04-10T15:54:42.360Z,10.60
2019-04-10T15:57:11.588Z,10.70
2019-04-10T15:59:40.662Z,10.60
2019-04-10T16:02:09.332Z,10.60
2019-04-10T16:04:37.803Z,10.50
2019-04-10T16:07:06.321Z,10.60
2019-04-10T16:09:44.798Z,10.50
2019-04-10T16:12:10.168Z,10.50
2019-04-10T16:14:38.625Z,10.60
2019-04-10T16:17:08.874Z,10.40
2019-04-10T16:19:54.959Z,10.30
2019-04-10T16:22:25.548Z,10.20
2019-04-10T16:24:55.485Z,10.10
2019-04-10T16:27:24.363Z,10.30
2019-04-10T16:29:53.132Z,10.00
2019-04-10T16:32:21.789Z,10.00
2019-04-10T16:34:51.172Z,9.80
2019-04-10T16:37:19.636Z,9.80
2019-04-10T16:39:58.552Z,9.70
2019-04-10T16:42:18.971Z,9.60
2019-04-10T16:44:47.570Z,9.70
2019-04-10T16:47:16.081Z,9.60
2019-04-10T16:49:44.723Z,9.60
2019-04-10T16:52:13.156Z,9.60
2019-04-10T16:54:41.697Z,9.70
2019-04-10T16:57:10.242Z,9.40
2019-04-10T16:59:39.570Z,9.40
2019-04-10T17:02:09.317Z,9.40
2019-04-10T17:04:37.924Z,9.40
2019-04-10T17:07:06.610Z,9.30
2019-04-10T17:09:35.108Z,9.40
2019-04-10T17:12:03.960Z,9.20
2019-04-10T17:14:32.608Z,9.00
2019-04-10T17:17:02.109Z,8.90
2019-04-10T17:19:30.818Z,8.80
2019-04-10T17:22:00.652Z,8.80
2019-04-10T17:24:29.305Z,8.80
2019-04-10T17:26:57.836Z,8.90
2019-04-10T17:29:27.224Z,8.80
2019-04-10T17:31:55.732Z,8.60
2019-04-10T17:34:24.967Z,8.50
2019-04-10T17:36:53.605Z,8.30
2019-04-10T17:39:22.905Z,8.20
2019-04-10T17:41:52.236Z,8.20
2019-04-10T17:44:21.302Z,8.10
2019-04-10T17:46:49.891Z,8.10
2019-04-10T17:49:19.289Z,8.10
2019-04-10T17:51:47.886Z,7.90
2019-04-10T17:54:16.402Z,7.70
2019-04-10T17:56:44.840Z,7.60
2019-04-10T17:59:14.181Z,7.60
2019-04-10T18:01:43.230Z,7.50
2019-04-10T18:04:11.971Z,7.40
2019-04-10T18:06:43.895Z,7.50
2019-04-10T18:09:11.740Z,7.40
2019-04-10T18:11:41.429Z,7.40
2019-04-10T18:14:11.048Z,7.30
2019-04-10T18:16:40.156Z,7.20
2019-04-10T18:19:09.038Z,7.20
2019-04-10T18:21:37.760Z,7.60
2019-04-10T18:24:06.313Z,7.80
2019-04-10T18:26:36.053Z,7.60
2019-04-10T18:29:05.807Z,7.30
2019-04-10T18:31:34.759Z,7.20
2019-04-10T18:34:07.087Z,7.10
2019-04-10T18:36:34.135Z,7.00
2019-04-10T18:39:04.042Z,7.00
2019-04-10T18:41:32.829Z,6.80
2019-04-10T18:44:01.514Z,6.70
2019-04-10T18:46:30.999Z,6.60
2019-04-10T18:48:59.950Z,6.60
2019-04-10T18:51:28.436Z,6.50
2019-04-10T18:53:57.569Z,6.50
2019-04-10T18:56:27.200Z,6.50
2019-04-10T18:59:06.352Z,6.40
2019-04-10T19:01:37.033Z,6.30
2019-04-10T19:04:07.774Z,6.40
2019-04-10T19:06:39.063Z,6.70
2019-04-10T19:09:15.388Z,6.50
2019-04-10T19:11:38.390Z,6.30
2019-04-10T19:14:07.898Z,6.20
2019-04-10T19:16:37.410Z,6.30
2019-04-10T19:19:06.007Z,6.20
2019-04-10T19:21:35.630Z,6.40
2019-04-10T19:24:04.196Z,6.50
2019-04-10T19:26:33.526Z,6.30
2019-04-10T19:29:03.242Z,6.10
2019-04-10T19:31:34.138Z,6.10
2019-04-10T19:34:03.216Z,6.10
2019-04-10T19:36:32.851Z,6.10
2019-04-10T19:39:02.117Z,6.10
2019-04-10T19:41:35.884Z,5.70
2019-04-10T19:44:00.828Z,5.80
2019-04-10T19:46:29.343Z,5.70
2019-04-10T19:48:57.789Z,5.60
2019-04-10T19:51:26.252Z,5.60
2019-04-10T19:53:54.809Z,5.60
2019-04-10T19:56:24.471Z,5.50
2019-04-10T19:58:52.952Z,5.40
2019-04-10T20:01:24.091Z,5.30
2019-04-10T20:03:52.169Z,5.20
2019-04-10T20:06:22.306Z,5.10
2019-04-10T20:08:50.855Z,5.10
2019-04-10T20:11:31.357Z,5.20
2019-04-10T20:13:49.515Z,5.20
2019-04-10T20:16:18.002Z,5.10
2019-04-10T20:18:46.425Z,5.10
2019-04-10T20:21:15.511Z,5.10
2019-04-10T20:23:44.104Z,5.10
2019-04-10T20:26:12.693Z,5.10
2019-04-10T20:28:42.108Z,5.00
2019-04-10T20:31:13.110Z,5.00
2019-04-10T20:33:43.057Z,4.90
2019-04-10T20:36:13.037Z,4.90
2019-04-10T20:38:43.033Z,4.70
2019-04-10T20:41:12.212Z,4.70
2019-04-10T20:43:40.655Z,4.60
2019-04-10T20:46:09.848Z,4.60
2019-04-10T20:48:38.511Z,4.60
2019-04-10T20:51:08.125Z,4.50
2019-04-10T20:53:40.199Z,4.50
2019-04-10T20:56:08.832Z,4.40
2019-04-10T20:58:38.235Z,4.40
2019-04-10T21:01:06.812Z,4.20
2019-04-10T21:03:35.935Z,4.10
2019-04-10T21:06:04.751Z,4.00
2019-04-10T21:08:34.159Z,3.90
2019-04-10T21:11:03.379Z,4.00
2019-04-10T21:13:31.996Z,3.80
2019-04-10T21:16:00.758Z,3.60
2019-04-10T21:18:29.294Z,3.60
2019-04-10T21:20:57.709Z,3.60
2019-04-10T21:23:27.151Z,3.50
2019-04-10T21:25:55.701Z,3.60
2019-04-10T21:28:24.139Z,3.60
2019-04-10T21:30:54.199Z,3.60
2019-04-10T21:33:32.977Z,3.50
2019-04-10T21:36:01.841Z,3.40
2019-04-10T21:38:30.421Z,3.40
2019-04-10T21:40:59.493Z,3.30
2019-04-10T21:43:28.224Z,3.30
2019-04-10T21:45:57.475Z,3.20
2019-04-10T21:48:26.513Z,3.20
2019-04-10T21:50:55.103Z,3.10
2019-04-10T21:53:24.033Z,3.10
2019-04-10T21:55:53.570Z,3.20
2019-04-10T21:58:22.334Z,3.00
2019-04-10T22:01:01.366Z,3.10
2019-04-10T22:03:30.094Z,3.10
2019-04-10T22:06:16.314Z,2.90
2019-04-10T22:08:49.965Z,2.80
2019-04-10T22:11:19.209Z,2.80
2019-04-10T22:13:50.615Z,2.70
2019-04-10T22:16:21.941Z,2.60
2019-04-10T22:18:50.602Z,2.60
2019-04-10T22:21:19.128Z,2.50
2019-04-10T22:23:49.040Z,2.50
2019-04-10T22:26:17.894Z,2.50
2019-04-10T22:28:47.552Z,2.50
2019-04-10T22:31:16.626Z,2.50
2019-04-10T22:33:45.180Z,2.40
2019-04-10T22:36:14.895Z,2.40
2019-04-10T22:38:44.012Z,2.30
2019-04-10T22:41:24.570Z,2.30
2019-04-10T22:43:42.888Z,2.20
2019-04-10T22:46:13.072Z,2.10
2019-04-10T22:48:43.574Z,2.10
2019-04-10T22:51:12.940Z,2.10
2019-04-10T22:53:42.368Z,2.10
2019-04-10T22:56:10.951Z,2.20
2019-04-10T22:58:39.442Z,2.20
2019-04-10T23:01:09.163Z,2.20
2019-04-10T23:03:39.197Z,2.20
2019-04-10T23:06:07.627Z,2.20
2019-04-10T23:08:36.126Z,2.30
2019-04-10T23:11:05.683Z,2.30
2019-04-10T23:13:34.207Z,2.30
2019-04-10T23:16:06.035Z,2.20
2019-04-10T23:18:34.528Z,2.30
2019-04-10T23:21:03.916Z,2.20
2019-04-10T23:23:32.836Z,2.30
2019-04-10T23:26:01.272Z,2.20
2019-04-10T23:28:29.725Z,2.10
2019-04-10T23:30:59.398Z,2.10
2019-04-10T23:33:28.169Z,2.10
2019-04-10T23:35:56.631Z,2.10
2019-04-10T23:38:25.733Z,2.10
2019-04-10T23:40:54.221Z,2.10
2019-04-10T23:43:24.114Z,2.00
2019-04-10T23:45:53.662Z,2.00
2019-04-10T23:48:22.517Z,2.00
2019-04-10T23:50:51.453Z,1.90
2019-04-10T23:53:20.461Z,2.00
2019-04-10T23:55:49.050Z,1.90
2019-04-10T23:58:18.742Z,1.90
